Time;durP1;ratioP1;P1;durP2;ratioP2;P2;SDS_P1;SDS_P2;PMS_P1;PMS_P2;Temp;Humidity;BMP_temperature;BMP_pressure;BME280_temperature;BME280_humidity;BME280_pressure;Samples;Min_cycle;Max_cycle;Signal;HPM_P1;HPM_P2
2022/04/16 00:01:20;;;;;;;15.75;6.80;;;18.80;53.10;;;;;;7385306;19;20922;-84
2022/04/16 00:03:49;;;;;;;12.63;6.38;;;18.70;53.10;;;;;;7386149;19;20034;-85
2022/04/16 00:06:17;;;;;;;11.50;6.30;;;18.70;53.00;;;;;;7403391;19;20545;-85
2022/04/16 00:08:46;;;;;;;11.55;7.05;;;18.70;53.10;;;;;;7383864;19;20016;-84
2022/04/16 00:11:15;;;;;;;13.63;6.55;;;18.60;53.10;;;;;;7384491;19;20018;-84
2022/04/16 00:13:46;;;;;;;10.90;6.10;;;18.60;53.40;;;;;;7383272;19;20109;-84
2022/04/16 00:16:17;;;;;;;12.93;6.57;;;18.60;53.40;;;;;;7384476;19;20014;-85
2022/04/16 00:18:48;;;;;;;12.15;6.55;;;18.60;53.20;;;;;;7379375;19;20074;-85
2022/04/16 00:21:17;;;;;;;;;;;18.60;53.20;;;;;;7403591;19;20042;-85
2022/04/16 00:23:46;;;;;;;12.82;5.93;;;18.60;52.90;;;;;;7380557;19;20442;-85
2022/04/16 00:26:15;;;;;;;14.57;6.25;;;18.50;53.10;;;;;;7386881;19;20011;-85
2022/04/16 00:28:44;;;;;;;10.30;5.25;;;18.50;53.10;;;;;;7382690;19;20078;-85
2022/04/16 00:31:14;;;;;;;11.07;6.18;;;18.50;53.20;;;;;;7384512;19;20006;-85
2022/04/16 00:33:42;;;;;;;10.15;5.78;;;18.50;53.20;;;;;;7383639;19;20025;-84
2022/04/16 00:36:14;;;;;;;11.27;5.38;;;18.50;53.20;;;;;;7405856;19;20023;-84
2022/04/16 00:38:43;;;;;;;14.85;6.03;;;18.40;53.10;;;;;;7384177;19;20426;-84
2022/04/16 00:41:13;;;;;;;12.90;5.50;;;18.40;53.20;;;;;;7387971;19;20022;-85
2022/04/16 00:43:42;;;;;;;8.55;5.30;;;18.40;53.40;;;;;;7390187;19;20037;-86
2022/04/16 00:46:11;;;;;;;13.30;5.60;;;18.30;53.50;;;;;;7387275;19;20011;-85
2022/04/16 00:48:39;;;;;;;13.77;5.68;;;18.30;53.40;;;;;;7387128;19;20043;-85
2022/04/16 00:51:09;;;;;;;11.30;5.93;;;18.30;53.70;;;;;;7409292;19;20055;-85
2022/04/16 00:53:40;;;;;;;10.68;6.40;;;18.20;53.60;;;;;;7388851;19;20019;-86
2022/04/16 00:56:10;;;;;;;14.35;5.82;;;18.20;53.70;;;;;;7390609;19;20020;-85
2022/04/16 00:58:41;;;;;;;11.75;6.65;;;18.20;53.70;;;;;;7399841;19;20003;-85
2022/04/16 01:01:10;;;;;;;11.98;6.32;;;18.10;53.90;;;;;;7409138;19;20010;-84
2022/04/16 01:03:42;;;;;;;11.07;6.70;;;18.10;54.10;;;;;;7409505;19;20017;-84
2022/04/16 01:06:15;;;;;;;12.73;6.75;;;18.10;54.20;;;;;;7431619;19;20028;-85
2022/04/16 01:08:47;;;;;;;13.48;7.50;;;18.10;54.20;;;;;;7410113;19;20015;-84
2022/04/16 01:11:16;;;;;;;10.50;6.53;;;18.00;54.30;;;;;;7411209;19;20017;-83
2022/04/16 01:13:48;;;;;;;12.05;5.95;;;18.00;54.30;;;;;;7408452;19;20086;-83
2022/04/16 01:16:16;;;;;;;;;;;18.00;54.30;;;;;;7407665;19;20014;-83
2022/04/16 01:18:48;;;;;;;12.18;6.40;;;17.90;54.30;;;;;;7391411;19;20267;-82
2022/04/16 01:21:18;;;;;;;12.50;6.18;;;17.90;54.40;;;;;;7406945;19;20018;-83
2022/04/16 01:23:49;;;;;;;13.77;6.20;;;17.80;54.40;;;;;;7382705;19;20021;-84
2022/04/16 01:26:18;;;;;;;;;;;17.80;54.70;;;;;;7379088;19;20031;-82
2022/04/16 01:28:46;;;;;;;11.55;6.88;;;17.80;54.90;;;;;;7375315;19;20552;-84
2022/04/16 01:31:15;;;;;;;10.68;6.60;;;17.80;54.70;;;;;;7377086;19;20035;-84
2022/04/16 01:33:47;;;;;;;12.32;6.53;;;17.70;54.70;;;;;;7373703;19;20014;-83
2022/04/16 01:36:16;;;;;;;14.70;7.28;;;17.70;54.80;;;;;;7399630;19;20121;-83
2022/04/16 01:38:45;;;;;;;15.82;6.65;;;17.70;54.90;;;;;;7374227;19;20090;-83
2022/04/16 01:41:16;;;;;;;13.60;8.05;;;17.70;55.00;;;;;;7375990;19;20540;-83
2022/04/16 01:43:45;;;;;;;13.73;8.25;;;17.70;55.00;;;;;;7373515;19;20014;-83
2022/04/16 01:46:14;;;;;;;17.55;7.25;;;17.60;55.10;;;;;;7376676;19;20006;-82
2022/04/16 01:48:42;;;;;;;12.95;7.45;;;17.60;55.20;;;;;;7376022;19;20011;-83
2022/04/16 01:51:11;;;;;;;15.13;7.10;;;17.60;55.20;;;;;;7396091;19;20450;-82
2022/04/16 01:53:40;;;;;;;12.43;6.50;;;17.60;55.30;;;;;;7374256;19;20010;-82
2022/04/16 01:56:09;;;;;;;16.45;7.43;;;17.60;55.60;;;;;;7376529;19;20015;-83
2022/04/16 01:58:43;;;;;;;17.38;8.30;;;17.60;55.60;;;;;;7377415;19;20017;-83
2022/04/16 02:01:12;;;;;;;13.80;7.53;;;17.60;55.60;;;;;;7377644;19;20014;-82
2022/04/16 02:03:41;;;;;;;15.07;8.07;;;17.60;55.50;;;;;;7376954;19;20026;-83
2022/04/16 02:06:10;;;;;;;16.52;8.35;;;17.60;55.50;;;;;;7393076;19;20330;-83
2022/04/16 02:08:38;;;;;;;16.00;8.57;;;17.60;55.60;;;;;;7375473;19;20039;-83
2022/04/16 02:11:07;;;;;;;18.35;8.63;;;17.50;55.60;;;;;;7375100;19;20077;-84
2022/04/16 02:13:36;;;;;;;20.75;8.95;;;17.50;55.70;;;;;;7375371;19;20118;-83
2022/04/16 02:16:07;;;;;;;16.20;7.78;;;17.40;55.80;;;;;;7374636;19;20369;-83
2022/04/16 02:18:36;;;;;;;16.00;7.43;;;17.40;56.10;;;;;;7372966;19;20525;-83
2022/04/16 02:21:05;;;;;;;12.60;7.65;;;17.40;56.10;;;;;;7401802;19;20015;-83
2022/04/16 02:23:34;;;;;;;14.88;7.68;;;17.30;56.00;;;;;;7392611;19;20026;-83
2022/04/16 02:26:07;;;;;;;16.45;8.50;;;17.30;56.10;;;;;;7383748;19;20021;-83
2022/04/16 02:28:36;;;;;;;14.10;8.38;;;17.30;56.30;;;;;;7381945;19;20024;-82
2022/04/16 02:31:08;;;;;;;14.68;7.93;;;17.30;56.40;;;;;;7377207;19;20022;-82
2022/04/16 02:33:37;;;;;;;17.85;8.38;;;17.30;56.50;;;;;;7378619;19;20015;-82
2022/04/16 02:36:07;;;;;;;16.75;9.20;;;17.30;56.40;;;;;;7398551;19;20018;-83
2022/04/16 02:38:36;;;;;;;18.48;8.93;;;17.30;56.50;;;;;;7374175;19;20006;-83
2022/04/16 02:41:05;;;;;;;16.95;8.57;;;17.30;56.50;;;;;;7375066;19;20041;-83
2022/04/16 02:43:34;;;;;;;17.42;9.57;;;17.30;56.60;;;;;;7372422;19;20031;-83
2022/04/16 02:48:48;;;;;;;15.52;9.30;;;17.30;56.60;;;;;;7388294;19;20010;-83
2022/04/16 02:51:18;;;;;;;17.50;9.32;;;17.30;56.60;;;;;;7405275;19;20066;-84
2022/04/16 02:53:46;;;;;;;17.23;9.52;;;17.20;56.60;;;;;;7380502;19;20010;-83
2022/04/16 02:56:15;;;;;;;15.60;9.05;;;17.20;57.20;;;;;;7374175;19;20011;-83
2022/04/16 02:58:44;;;;;;;15.75;8.45;;;17.20;56.60;;;;;;7382307;19;20061;-85
2022/04/16 03:01:12;;;;;;;16.40;9.35;;;17.20;56.50;;;;;;7372923;19;20445;-84
2022/04/16 03:03:42;;;;;;;19.63;9.60;;;17.20;56.40;;;;;;7377067;19;20015;-85
2022/04/16 03:06:13;;;;;;;17.55;9.52;;;17.20;56.40;;;;;;7407791;19;20023;-86
2022/04/16 03:08:42;;;;;;;;;;;17.10;56.50;;;;;;7381596;19;20010;-84
2022/04/16 03:11:11;;;;;;;17.67;10.90;;;17.20;56.60;;;;;;7375354;19;19946;-86
2022/04/16 03:13:40;;;;;;;19.67;10.55;;;17.10;56.60;;;;;;7373329;19;20206;-84
2022/04/16 03:18:50;;;;;;;22.92;11.40;;;17.10;56.70;;;;;;7375591;19;20022;-83
2022/04/16 03:21:22;;;;;;;20.02;11.13;;;17.00;56.70;;;;;;7391496;19;20568;-83
2022/04/16 03:23:50;;;;;;;;;;;17.00;56.90;;;;;;7375350;19;20089;-83
2022/04/16 03:26:19;;;;;;;24.90;11.82;;;17.00;56.80;;;;;;7372187;19;19940;-84
2022/04/16 03:28:48;;;;;;;23.42;10.82;;;17.00;56.80;;;;;;7375224;19;20764;-84
2022/04/16 03:31:17;;;;;;;23.70;12.90;;;17.00;56.90;;;;;;7375114;19;20049;-83
2022/04/16 03:33:46;;;;;;;27.38;12.25;;;16.90;56.90;;;;;;7375701;19;20041;-84
2022/04/16 03:36:15;;;;;;;23.13;11.85;;;16.90;56.90;;;;;;7393574;19;20106;-84
2022/04/16 03:38:46;;;;;;;21.95;12.65;;;16.90;56.80;;;;;;7370918;19;20368;-83
2022/04/16 03:41:15;;;;;;;26.10;12.52;;;16.90;57.00;;;;;;7370327;19;20014;-83
2022/04/16 03:43:44;;;;;;;23.08;13.07;;;16.90;57.10;;;;;;7372055;19;20015;-85
2022/04/16 03:46:12;;;;;;;27.10;13.48;;;16.90;57.00;;;;;;7372672;19;20493;-84
2022/04/16 03:48:43;;;;;;;25.33;13.27;;;16.90;56.90;;;;;;7370345;19;20321;-83
2022/04/16 03:51:12;;;;;;;25.15;14.40;;;16.90;56.90;;;;;;7393155;19;20010;-84
2022/04/16 03:53:40;;;;;;;27.30;14.52;;;16.90;57.10;;;;;;7372565;19;20533;-84
2022/04/16 04:01:40;;;;;;;26.20;16.35;;;16.80;57.20;;;;;;7369710;19;20080;-84
2022/04/16 04:04:10;;;;;;;27.92;16.08;;;16.80;57.20;;;;;;7372415;19;20110;-85
2022/04/16 04:06:38;;;;;;;27.17;15.60;;;16.80;57.20;;;;;;7368693;19;20015;-83
2022/04/16 04:09:07;;;;;;;32.60;16.30;;;16.80;57.20;;;;;;7395657;19;20043;-84
2022/04/16 04:11:38;;;;;;;27.50;15.93;;;16.80;57.10;;;;;;7372223;19;20022;-84
2022/04/16 04:14:07;;;;;;;;;;;16.80;57.20;;;;;;7372692;19;20039;-84
2022/04/16 04:16:36;;;;;;;28.40;15.88;;;16.80;57.10;;;;;;7372007;19;19982;-84
2022/04/16 04:19:05;;;;;;;31.13;15.30;;;16.80;57.00;;;;;;7371505;19;20015;-85
2022/04/16 04:21:33;;;;;;;29.05;15.52;;;16.80;57.00;;;;;;7384072;19;20018;-83
2022/04/16 04:24:02;;;;;;;30.67;16.65;;;16.80;56.90;;;;;;7392595;19;20018;-84
2022/04/16 04:26:31;;;;;;;29.10;15.80;;;16.70;56.90;;;;;;7370696;19;20042;-84
2022/04/16 04:29:02;;;;;;;26.08;15.85;;;16.70;57.10;;;;;;7373482;19;20078;-84
2022/04/16 04:31:31;;;;;;;28.92;17.48;;;16.70;57.10;;;;;;7373098;19;20027;-84
2022/04/16 04:34:00;;;;;;;26.70;15.32;;;16.70;57.00;;;;;;7371566;19;20051;-83
2022/04/16 04:36:28;;;;;;;30.60;16.10;;;16.60;57.10;;;;;;7389555;19;20117;-84
2022/04/16 04:38:57;;;;;;;27.15;16.13;;;16.60;57.10;;;;;;7370661;19;20019;-82
2022/04/16 04:41:26;;;;;;;28.63;15.88;;;16.60;57.10;;;;;;7369487;19;20014;-84
2022/04/16 04:43:54;;;;;;;25.17;15.65;;;16.60;57.80;;;;;;7371996;19;20025;-83
2022/04/16 04:46:26;;;;;;;27.92;16.15;;;16.60;57.90;;;;;;7375261;19;20389;-83
2022/04/16 04:48:54;;;;;;;26.65;16.00;;;16.50;57.00;;;;;;7376678;19;20115;-83
2022/04/16 04:51:23;;;;;;;26.15;16.20;;;16.50;57.20;;;;;;7396833;19;20121;-84
2022/04/16 04:53:52;;;;;;;26.52;14.88;;;16.50;57.20;;;;;;7378237;19;20120;-83
2022/04/16 04:56:20;;;;;;;28.75;14.93;;;16.50;57.10;;;;;;7377792;19;20054;-84
2022/04/16 04:58:49;;;;;;;26.58;16.38;;;16.50;57.10;;;;;;7375362;19;20044;-85
2022/04/16 05:01:19;;;;;;;29.67;16.02;;;16.50;57.00;;;;;;7378393;19;20528;-85
2022/04/16 05:03:50;;;;;;;26.00;15.20;;;16.50;57.00;;;;;;7378050;19;20093;-85
2022/04/16 05:06:19;;;;;;;29.80;16.65;;;16.40;57.00;;;;;;7396876;19;20114;-84
2022/04/16 05:08:47;;;;;;;26.63;15.30;;;16.40;56.90;;;;;;7378470;19;20347;-84
2022/04/16 05:11:16;;;;;;;24.25;14.60;;;16.40;56.70;;;;;;7377204;19;20086;-84
2022/04/16 05:13:45;;;;;;;22.98;14.23;;;16.40;56.70;;;;;;7379620;19;20082;-85
2022/04/16 05:16:15;;;;;;;27.52;14.20;;;16.40;56.60;;;;;;7382728;19;20074;-85
2022/04/16 05:18:43;;;;;;;28.90;15.88;;;16.50;56.60;;;;;;7387890;19;20054;-84
2022/04/16 05:21:15;;;;;;;27.77;15.60;;;16.50;56.30;;;;;;7409491;19;20015;-84
2022/04/16 05:23:44;;;;;;;23.23;13.90;;;16.50;56.20;;;;;;7385174;19;20018;-85
2022/04/16 05:26:13;;;;;;;32.53;15.63;;;16.50;56.30;;;;;;7384317;19;20023;-84
2022/04/16 05:28:42;;;;;;;26.52;15.23;;;16.50;56.30;;;;;;7385555;19;20007;-84
2022/04/16 05:31:11;;;;;;;29.15;15.52;;;16.50;56.30;;;;;;7384807;19;20014;-83
2022/04/16 05:36:24;;;;;;;26.48;15.48;;;16.50;56.50;;;;;;7405940;19;20018;-83
2022/04/16 05:38:53;;;;;;;25.55;15.15;;;16.40;56.50;;;;;;7380810;19;20003;-84
2022/04/16 05:41:22;;;;;;;28.10;15.63;;;16.40;56.60;;;;;;7382884;19;20014;-84
2022/04/16 05:43:53;;;;;;;25.23;15.88;;;16.50;56.50;;;;;;7380092;19;20121;-84
2022/04/16 05:46:21;;;;;;;28.73;16.60;;;16.40;56.50;;;;;;7381955;19;20014;-84
2022/04/16 05:48:50;;;;;;;26.95;15.45;;;16.40;56.40;;;;;;7382851;19;20035;-85
2022/04/16 05:51:19;;;;;;;28.80;15.57;;;16.40;56.50;;;;;;7404714;19;20050;-84
2022/04/16 05:53:52;;;;;;;27.17;15.80;;;16.40;56.60;;;;;;7380370;19;20014;-84
2022/04/16 05:56:22;;;;;;;29.17;16.60;;;16.50;56.80;;;;;;7380116;19;20026;-84
2022/04/16 05:58:51;;;;;;;27.90;16.52;;;16.40;56.50;;;;;;7382402;19;20071;-84
2022/04/16 06:01:19;;;;;;;27.58;16.52;;;16.50;56.60;;;;;;7391257;19;20003;-84
2022/04/16 06:03:48;;;;;;;28.65;16.25;;;16.50;56.60;;;;;;7391403;19;20095;-84
2022/04/16 06:06:17;;;;;;;27.85;16.90;;;16.50;56.50;;;;;;7398915;19;20006;-85
2022/04/16 06:08:46;;;;;;;27.67;16.95;;;16.60;56.60;;;;;;7377482;19;20025;-85
2022/04/16 06:11:20;;;;;;;26.08;15.48;;;16.60;56.30;;;;;;7376817;19;20058;-84
2022/04/16 06:13:48;;;;;;;30.77;17.10;;;16.70;56.50;;;;;;7382945;19;20018;-84
2022/04/16 06:16:17;;;;;;;26.42;16.25;;;16.70;56.30;;;;;;7395308;19;20032;-84
2022/04/16 06:18:46;;;;;;;30.33;16.20;;;16.80;56.30;;;;;;7389004;19;20014;-84
2022/04/16 06:21:15;;;;;;;30.05;17.90;;;16.80;56.40;;;;;;7403291;19;20018;-83
2022/04/16 06:23:44;;;;;;;33.10;18.75;;;16.80;56.20;;;;;;7381994;19;20021;-85
2022/04/16 06:26:12;;;;;;;34.20;19.13;;;16.80;56.10;;;;;;7379860;19;20029;-84
2022/04/16 06:28:44;;;;;;;34.67;20.10;;;16.90;56.10;;;;;;7379841;19;20959;-83
2022/04/16 06:31:12;;;;;;;31.02;18.55;;;16.90;55.70;;;;;;7378399;19;20122;-85
2022/04/16 06:33:41;;;;;;;35.40;20.00;;;17.00;55.70;;;;;;7379736;19;20018;-84
2022/04/16 06:36:10;;;;;;;30.38;18.13;;;17.00;55.70;;;;;;7401494;19;20010;-84
2022/04/16 06:38:39;;;;;;;32.83;19.45;;;17.00;55.70;;;;;;7382222;19;20015;-85
2022/04/16 06:41:07;;;;;;;32.75;18.92;;;17.10;55.80;;;;;;7379680;19;20075;-84
2022/04/16 06:43:36;;;;;;;30.65;18.50;;;17.10;55.80;;;;;;7376337;19;20031;-84
2022/04/16 06:46:07;;;;;;;32.08;20.33;;;17.10;55.70;;;;;;7378287;19;20022;-84
2022/04/16 06:48:36;;;;;;;33.50;19.92;;;17.20;55.40;;;;;;7377479;19;20026;-84
2022/04/16 06:51:05;;;;;;;31.80;19.55;;;17.20;55.30;;;;;;7400066;19;20510;-84
2022/04/16 06:53:34;;;;;;;35.83;20.42;;;17.30;55.50;;;;;;7376613;19;20019;-84
2022/04/16 06:56:02;;;;;;;33.15;20.88;;;17.30;55.30;;;;;;7377740;19;20028;-83
2022/04/16 06:58:31;;;;;;;36.30;20.77;;;17.30;55.10;;;;;;7373193;19;20015;-84
2022/04/16 07:01:00;;;;;;;35.20;20.77;;;17.40;55.00;;;;;;7375886;19;20018;-83
2022/04/16 07:03:34;;;;;;;35.55;20.75;;;17.40;55.10;;;;;;7396391;19;20018;-83
2022/04/16 07:06:03;;;;;;;35.92;21.90;;;17.40;55.00;;;;;;7372291;19;20986;-83
2022/04/16 07:08:32;;;;;;;33.10;21.27;;;17.40;54.70;;;;;;7375338;19;20026;-84
2022/04/16 07:11:01;;;;;;;35.83;21.75;;;17.40;54.80;;;;;;7377048;19;20026;-84
2022/04/16 07:13:29;;;;;;;42.15;21.30;;;17.30;54.40;;;;;;7375683;19;20026;-84
2022/04/16 07:15:58;;;;;;;35.42;21.08;;;17.40;54.90;;;;;;7377204;19;20047;-83
2022/04/16 07:18:27;;;;;;;35.45;21.10;;;17.40;54.80;;;;;;7396079;19;20022;-84
2022/04/16 07:20:58;;;;;;;35.15;21.27;;;17.50;54.80;;;;;;7374309;19;20014;-83
2022/04/16 07:23:48;;;;;;;36.40;22.10;;;17.50;54.50;;;;;;7375182;19;20062;-84
2022/04/16 07:26:16;;;;;;;33.92;21.17;;;17.50;54.60;;;;;;7374580;19;20022;-82
2022/04/16 07:28:45;;;;;;;32.05;21.48;;;17.60;54.60;;;;;;7378219;19;20007;-84
2022/04/16 07:31:14;;;;;;;35.83;21.70;;;17.60;54.00;;;;;;7375396;19;20086;-83
2022/04/16 07:33:43;;;;;;;32.60;21.58;;;17.60;54.10;;;;;;7374182;19;20038;-83
2022/04/16 07:36:14;;;;;;;36.85;22.98;;;17.60;54.20;;;;;;7393619;19;20022;-83
2022/04/16 07:38:44;;;;;;;37.55;21.73;;;17.60;53.90;;;;;;7370762;19;20018;-84
2022/04/16 07:41:13;;;;;;;35.83;21.60;;;17.70;53.70;;;;;;7374327;19;20097;-83
2022/04/16 07:43:42;;;;;;;38.08;22.80;;;17.70;53.90;;;;;;7374909;19;20062;-83
2022/04/16 07:46:11;;;;;;;34.28;22.08;;;17.70;53.80;;;;;;7374634;19;20465;-84
2022/04/16 07:48:40;;;;;;;36.85;21.63;;;17.70;53.60;;;;;;7376803;19;20081;-84
2022/04/16 07:51:09;;;;;;;33.75;20.55;;;17.70;53.70;;;;;;7396985;19;20442;-84
2022/04/16 07:53:40;;;;;;;31.65;20.17;;;17.70;53.90;;;;;;7376146;19;20047;-84
2022/04/16 07:56:09;;;;;;;30.63;20.55;;;17.80;53.80;;;;;;7372998;19;20026;-83
2022/04/16 07:58:38;;;;;;;36.05;20.38;;;17.80;53.70;;;;;;7372967;19;20007;-84
2022/04/16 08:01:06;;;;;;;37.63;21.98;;;17.90;53.40;;;;;;7373251;19;20038;-83
2022/04/16 08:03:35;;;;;;;41.30;24.67;;;17.80;53.30;;;;;;7376310;19;20445;-82
2022/04/16 08:06:04;;;;;;;47.47;23.55;;;17.70;53.40;;;;;;7397753;19;20194;-83
2022/04/16 08:08:33;;;;;;;33.45;22.10;;;17.70;53.80;;;;;;7377137;19;20434;-83
2022/04/16 08:11:05;;;;;;;37.20;23.48;;;17.60;54.00;;;;;;7377775;19;20007;-83
2022/04/16 08:13:34;;;;;;;37.30;23.23;;;17.60;54.20;;;;;;7375847;19;20014;-82
2022/04/16 08:16:05;;;;;;;37.15;23.65;;;17.70;54.20;;;;;;7376067;19;20035;-83
2022/04/16 08:18:33;;;;;;;37.40;23.73;;;17.50;54.00;;;;;;7403637;19;20052;-83
2022/04/16 08:21:02;;;;;;;43.00;24.85;;;17.50;54.20;;;;;;7380164;19;20078;-83
2022/04/16 08:23:33;;;;;;;39.30;23.63;;;17.30;54.30;;;;;;7387522;19;20072;-83
2022/04/16 08:26:04;;;;;;;37.42;23.08;;;17.40;54.50;;;;;;7391578;19;20354;-82
2022/04/16 08:28:33;;;;;;;40.65;22.70;;;17.50;54.20;;;;;;7396822;19;20015;-84
2022/04/16 08:31:02;;;;;;;41.20;24.23;;;17.60;54.30;;;;;;7403158;19;20017;-84
2022/04/16 08:33:30;;;;;;;36.88;23.13;;;17.50;54.30;;;;;;7413858;19;20035;-83
2022/04/16 08:35:59;;;;;;;39.15;23.63;;;17.60;54.40;;;;;;7386849;19;20326;-83
2022/04/16 08:38:28;;;;;;;35.42;22.38;;;17.70;54.30;;;;;;7386701;19;20044;-83
2022/04/16 08:40:57;;;;;;;38.17;22.90;;;17.70;53.90;;;;;;7385383;19;20094;-83
2022/04/16 08:43:29;;;;;;;37.88;22.17;;;17.60;53.90;;;;;;7389967;19;20026;-84
2022/04/16 08:45:58;;;;;;;;;;;17.70;53.80;;;;;;7388153;19;20045;-84
2022/04/16 08:48:27;;;;;;;40.97;23.73;;;17.80;54.10;;;;;;7402884;19;19982;-83
2022/04/16 08:50:56;;;;;;;37.75;22.77;;;17.80;53.60;;;;;;7378040;19;20142;-83
2022/04/16 08:53:25;;;;;;;34.45;21.40;;;17.40;53.80;;;;;;7380325;19;20027;-84
2022/04/16 08:55:54;;;;;;;37.05;22.33;;;17.50;54.30;;;;;;7380124;19;20010;-83
2022/04/16 08:58:23;;;;;;;42.03;22.42;;;17.60;54.30;;;;;;7380748;19;20111;-82
2022/04/16 09:00:55;;;;;;;40.42;21.67;;;17.70;53.80;;;;;;7400851;19;20018;-83
2022/04/16 09:03:24;;;;;;;31.77;19.42;;;17.70;53.70;;;;;;7380060;19;20441;-83
2022/04/16 09:05:57;;;;;;;30.70;19.08;;;17.80;53.70;;;;;;7380761;19;20102;-83
2022/04/16 09:08:30;;;;;;;34.22;21.08;;;17.90;53.50;;;;;;7381184;19;20029;-83
2022/04/16 09:11:22;;;;;;;35.92;20.70;;;17.80;53.30;;;;;;7378919;19;20010;-82
2022/04/16 09:13:54;;;;;;;;;;;17.90;53.10;;;;;;7380596;19;20014;-84
2022/04/16 09:16:25;;;;;;;;;;;18.10;53.50;;;;;;7378730;19;19943;-82
2022/04/16 09:18:55;;;;;;;31.05;18.35;;;18.20;52.80;;;;;;7401246;19;19919;-82
2022/04/16 09:21:27;;;;;;;32.00;19.55;;;18.10;52.70;;;;;;7379688;19;20376;-83
2022/04/16 09:24:01;;;;;;;31.75;19.50;;;18.00;52.50;;;;;;7380441;19;20082;-83
2022/04/16 09:26:32;;;;;;;27.90;18.35;;;18.00;52.20;;;;;;7380278;19;20110;-83
2022/04/16 09:29:08;;;;;;;30.40;18.33;;;18.10;52.80;;;;;;7378050;19;20636;-83
2022/04/16 09:31:41;;;;;;;26.55;17.80;;;18.10;53.10;;;;;;7378417;19;20430;-83
2022/04/16 09:34:18;;;;;;;28.63;17.92;;;18.10;52.50;;;;;;7380138;19;20086;-83
2022/04/16 09:36:47;;;;;;;25.27;16.70;;;18.20;52.90;;;;;;7401439;19;20039;-83
2022/04/16 09:39:16;;;;;;;27.48;16.55;;;18.30;52.70;;;;;;7380225;19;20495;-82
2022/04/16 09:41:46;;;;;;;29.15;18.05;;;18.20;53.10;;;;;;7381787;19;20498;-82
2022/04/16 09:44:22;;;;;;;25.92;16.98;;;18.30;52.90;;;;;;7380931;19;20010;-82
2022/04/16 09:46:55;;;;;;;25.30;16.67;;;18.30;53.00;;;;;;7378665;19;20446;-82
2022/04/16 09:49:24;;;;;;;27.52;16.42;;;18.30;52.80;;;;;;7379441;19;20347;-82
2022/04/16 09:51:54;;;;;;;26.73;17.05;;;18.30;52.50;;;;;;7400505;19;20090;-83
2022/04/16 09:54:23;;;;;;;24.77;15.38;;;18.30;52.60;;;;;;7379863;19;20434;-83
2022/04/16 09:56:54;;;;;;;26.00;14.88;;;18.30;52.50;;;;;;7378597;19;20022;-84
2022/04/16 09:59:28;;;;;;;29.07;16.13;;;18.40;52.50;;;;;;7377641;19;20074;-83
2022/04/16 10:02:00;;;;;;;28.05;17.88;;;18.50;53.00;;;;;;7379639;19;20264;-84
2022/04/16 10:04:31;;;;;;;24.73;14.98;;;18.50;52.20;;;;;;7383991;19;20014;-86
2022/04/16 10:07:00;;;;;;;23.55;16.58;;;18.60;52.50;;;;;;7412405;19;20116;-81
2022/04/16 10:09:30;;;;;;;27.20;15.23;;;18.70;52.40;;;;;;7391336;19;20029;-84
2022/04/16 10:14:44;;;;;;;;;;;18.80;51.80;;;;;;7385444;19;20014;-84
2022/04/16 10:17:26;;;;;;;21.30;12.80;;;18.80;51.20;;;;;;7381459;19;19926;-83
2022/04/16 10:19:55;;;;;;;;;;;18.40;50.90;;;;;;7381269;19;20497;-84
2022/04/16 10:22:26;;;;;;;15.27;10.77;;;18.50;51.20;;;;;;7381167;19;19923;-83
2022/04/16 10:24:57;;;;;;;18.42;12.18;;;18.60;51.30;;;;;;7399956;19;20019;-83
2022/04/16 10:27:28;;;;;;;18.67;11.18;;;18.70;50.10;;;;;;7383903;19;20015;-82
2022/04/16 10:30:01;;;;;;;19.95;11.32;;;18.70;51.00;;;;;;7379426;19;20043;-83
2022/04/16 10:32:41;;;;;;;21.92;11.85;;;18.80;50.80;;;;;;7382110;19;20054;-84
2022/04/16 10:35:15;;;;;;;14.93;10.03;;;18.90;50.40;;;;;;7380604;19;20587;-86
2022/04/16 10:37:47;;;;;;;15.75;9.20;;;19.00;50.20;;;;;;7380218;19;20010;-81
2022/04/16 10:40:21;;;;;;;12.88;8.23;;;19.10;50.00;;;;;;7380100;19;20014;-83
2022/04/16 10:42:52;;;;;;;9.60;7.10;;;19.10;49.70;;;;;;7407891;19;20074;-82
2022/04/16 10:45:21;;;;;;;14.73;8.40;;;19.20;48.80;;;;;;7378900;19;20034;-83
2022/04/16 10:47:54;;;;;;;12.93;8.35;;;19.20;49.00;;;;;;7376140;19;20011;-84
2022/04/16 10:50:25;;;;;;;13.05;8.40;;;19.40;48.50;;;;;;7378490;19;20046;-83
2022/04/16 10:52:58;;;;;;;10.85;7.13;;;19.40;47.80;;;;;;7380396;19;20038;-85
2022/04/16 10:55:30;;;;;;;11.70;7.15;;;19.30;47.60;;;;;;7377704;19;20442;-80
2022/04/16 10:58:04;;;;;;;10.23;6.50;;;19.40;46.70;;;;;;7396143;19;20023;-79
2022/04/16 11:00:41;;;;;;;12.55;6.78;;;19.40;47.00;;;;;;7375472;19;20010;-80
2022/04/16 11:03:17;;;;;;;9.45;6.47;;;19.50;45.80;;;;;;7375346;19;20035;-78
2022/04/16 11:05:47;;;;;;;10.18;6.88;;;19.60;46.30;;;;;;7370040;19;20014;-78
2022/04/16 11:08:17;;;;;;;9.20;6.07;;;19.70;46.90;;;;;;7373224;19;20106;-78
2022/04/16 11:10:50;;;;;;;7.38;5.53;;;19.70;46.40;;;;;;7372957;19;20018;-81
2022/04/16 11:13:19;;;;;;;8.32;5.35;;;19.80;45.30;;;;;;7381212;19;20471;-78
2022/04/16 11:15:48;;;;;;;6.20;3.97;;;19.80;45.40;;;;;;7395391;19;20360;-78
2022/04/16 11:18:19;;;;;;;7.88;4.05;;;19.90;44.20;;;;;;7372624;19;20121;-80
2022/04/16 11:20:58;;;;;;;6.55;4.68;;;19.90;43.00;;;;;;7377153;19;20025;-80
2022/04/16 11:23:41;;;;;;;4.93;3.25;;;19.90;44.00;;;;;;7380075;19;20010;-79
2022/04/16 11:34:21;;;;;;;9.02;6.05;;;20.10;44.20;;;;;;7377608;19;20602;-79
2022/04/16 11:36:53;;;;;;;11.07;6.72;;;20.10;44.50;;;;;;7396278;19;20105;-79
2022/04/16 11:39:23;;;;;;;10.95;6.38;;;20.10;44.60;;;;;;7372414;19;20018;-80
2022/04/16 11:41:53;;;;;;;8.75;5.78;;;20.10;42.50;;;;;;7372873;19;20043;-80
2022/04/16 11:44:41;;;;;;;11.27;7.07;;;20.10;42.70;;;;;;7371645;19;20007;-78
2022/04/16 11:47:13;;;;;;;8.60;6.10;;;20.10;43.30;;;;;;7371067;19;20078;-79
2022/04/16 11:49:54;;;;;;;10.38;7.05;;;20.20;43.90;;;;;;7371376;19;20074;-80
2022/04/16 11:52:25;;;;;;;12.02;8.10;;;20.20;44.20;;;;;;7367623;19;21858;-79
2022/04/16 11:55:10;;;;;;;14.73;8.35;;;20.30;44.40;;;;;;7399618;19;20343;-77
2022/04/16 11:57:39;;;;;;;10.88;7.70;;;20.40;44.70;;;;;;7377230;19;20014;-78
2022/04/16 12:00:10;;;;;;;11.43;8.48;;;20.40;44.40;;;;;;7378273;19;20078;-78
2022/04/16 12:02:42;;;;;;;23.30;12.68;;;20.50;44.60;;;;;;7374968;19;20014;-76
2022/04/16 12:05:14;;;;;;;;;;;20.60;44.60;;;;;;7376621;19;20082;-78
2022/04/16 12:07:44;;;;;;;11.52;7.80;;;20.60;43.70;;;;;;7378114;19;20024;-81
2022/04/16 12:10:16;;;;;;;14.65;8.25;;;20.60;43.10;;;;;;7378890;19;20042;-80
2022/04/16 12:12:50;;;;;;;7.97;5.47;;;20.60;43.00;;;;;;7397965;19;20081;-78
2022/04/16 12:15:24;;;;;;;6.43;4.18;;;20.70;41.80;;;;;;7379911;19;20078;-77
2022/04/16 12:17:54;;;;;;;4.70;3.95;;;20.70;40.90;;;;;;7380630;19;20011;-79
2022/04/16 12:20:27;;;;;;;7.72;5.03;;;20.70;39.80;;;;;;7369855;19;20830;-77
2022/04/16 12:22:59;;;;;;;8.88;5.03;;;20.80;40.00;;;;;;7370126;19;20090;-79
2022/04/16 12:25:28;;;;;;;10.45;7.68;;;20.80;40.60;;;;;;7377335;19;20435;-78
2022/04/16 12:27:58;;;;;;;11.93;6.88;;;21.00;41.10;;;;;;7397208;19;20434;-79
2022/04/16 12:30:28;;;;;;;9.40;6.38;;;21.00;41.80;;;;;;7379091;19;20035;-79
2022/04/16 12:33:01;;;;;;;13.18;8.20;;;21.00;42.70;;;;;;7377865;19;20647;-78
2022/04/16 12:35:34;;;;;;;13.48;9.07;;;21.10;42.90;;;;;;7380545;19;20018;-79
2022/04/16 12:38:04;;;;;;;12.10;8.77;;;21.10;42.00;;;;;;7374826;19;20094;-77
2022/04/16 12:40:34;;;;;;;14.27;9.35;;;21.20;42.60;;;;;;7375122;19;20055;-78
2022/04/16 12:43:04;;;;;;;13.57;8.63;;;21.30;43.00;;;;;;7389675;19;20035;-77
2022/04/16 12:45:33;;;;;;;11.93;8.00;;;21.30;42.80;;;;;;7396495;19;20022;-77
2022/04/16 12:48:02;;;;;;;10.68;6.40;;;21.30;41.40;;;;;;7376156;19;20035;-78
2022/04/16 12:50:33;;;;;;;9.63;6.13;;;21.30;41.80;;;;;;7377074;19;20118;-79
2022/04/16 12:53:04;;;;;;;;;;;21.30;42.30;;;;;;7379045;19;20028;-78
2022/04/16 12:55:33;;;;;;;11.95;6.40;;;21.30;40.80;;;;;;7380129;19;19946;-78
2022/04/16 12:58:02;;;;;;;9.45;6.55;;;21.30;41.50;;;;;;7395018;19;20022;-79
2022/04/16 13:00:31;;;;;;;8.23;6.50;;;21.30;41.40;;;;;;7377853;19;20046;-79
2022/04/16 13:03:00;;;;;;;9.10;7.30;;;21.40;42.10;;;;;;7377831;19;20014;-79
2022/04/16 13:05:29;;;;;;;9.05;7.20;;;21.50;41.70;;;;;;7377331;19;20039;-79
2022/04/16 13:08:01;;;;;;;11.13;8.15;;;21.50;41.30;;;;;;7380212;19;20022;-80
2022/04/16 13:10:30;;;;;;;10.60;7.18;;;21.50;41.30;;;;;;7379316;19;20018;-79
2022/04/16 13:13:01;;;;;;;8.48;6.43;;;21.60;41.80;;;;;;7399534;19;20042;-78
2022/04/16 13:15:30;;;;;;;12.52;7.53;;;21.70;42.20;;;;;;7379479;19;20022;-78